sensor_id;sensor_type;location;lat;lon;timestamp;P1;durP1;ratioP1;P2;durP2;ratioP2
71038;SDS011;58692;43.212;27.908;2022-10-16T00:01:14;19.00;;;11.45;;
71038;SDS011;58692;43.212;27.908;2022-10-16T00:03:42;16.17;;;10.97;;
71038;SDS011;58692;43.212;27.908;2022-10-16T00:06:09;17.92;;;10.70;;
71038;SDS011;58692;43.212;27.908;2022-10-16T00:08:36;17.98;;;10.45;;
71038;SDS011;58692;43.212;27.908;2022-10-16T00:11:03;15.85;;;10.30;;
71038;SDS011;58692;43.212;27.908;2022-10-16T00:13:31;16.30;;;8.82;;
71038;SDS011;58692;43.212;27.908;2022-10-16T00:15:58;15.17;;;8.90;;
71038;SDS011;58692;43.212;27.908;2022-10-16T00:18:24;16.33;;;9.05;;
71038;SDS011;58692;43.212;27.908;2022-10-16T00:20:51;13.73;;;8.05;;
71038;SDS011;58692;43.212;27.908;2022-10-16T00:23:16;14.37;;;7.90;;
71038;SDS011;58692;43.212;27.908;2022-10-16T00:25:42;17.13;;;8.68;;
71038;SDS011;58692;43.212;27.908;2022-10-16T00:28:08;13.73;;;8.30;;
71038;SDS011;58692;43.212;27.908;2022-10-16T00:30:33;13.17;;;8.30;;
71038;SDS011;58692;43.212;27.908;2022-10-16T00:33:02;13.82;;;8.40;;
71038;SDS011;58692;43.212;27.908;2022-10-16T00:35:27;12.80;;;7.47;;
71038;SDS011;58692;43.212;27.908;2022-10-16T00:37:54;17.90;;;9.23;;
71038;SDS011;58692;43.212;27.908;2022-10-16T00:40:19;16.13;;;9.50;;
71038;SDS011;58692;43.212;27.908;2022-10-16T00:42:45;15.65;;;10.18;;
71038;SDS011;58692;43.212;27.908;2022-10-16T00:45:10;16.33;;;11.00;;
71038;SDS011;58692;43.212;27.908;2022-10-16T00:47:39;16.40;;;10.27;;
71038;SDS011;58692;43.212;27.908;2022-10-16T00:52:48;20.67;;;11.23;;
71038;SDS011;58692;43.212;27.908;2022-10-16T00:55:16;19.00;;;10.25;;
71038;SDS011;58692;43.212;27.908;2022-10-16T00:57:42;16.48;;;10.50;;
71038;SDS011;58692;43.212;27.908;2022-10-16T01:00:14;16.67;;;9.25;;
71038;SDS011;58692;43.212;27.908;2022-10-16T01:02:42;16.27;;;9.63;;
71038;SDS011;58692;43.212;27.908;2022-10-16T01:05:08;17.30;;;8.93;;
71038;SDS011;58692;43.212;27.908;2022-10-16T01:13:05;14.80;;;7.47;;
71038;SDS011;58692;43.212;27.908;2022-10-16T01:15:37;14.10;;;8.05;;
71038;SDS011;58692;43.212;27.908;2022-10-16T01:18:29;12.32;;;6.93;;
71038;SDS011;58692;43.212;27.908;2022-10-16T01:21:01;9.77;;;6.40;;
71038;SDS011;58692;43.212;27.908;2022-10-16T01:26:18;13.68;;;6.85;;
71038;SDS011;58692;43.212;27.908;2022-10-16T01:28:55;11.98;;;6.57;;
71038;SDS011;58692;43.212;27.908;2022-10-16T01:31:27;11.95;;;6.88;;
71038;SDS011;58692;43.212;27.908;2022-10-16T01:34:02;12.07;;;6.90;;
71038;SDS011;58692;43.212;27.908;2022-10-16T01:36:35;12.45;;;6.68;;
71038;SDS011;58692;43.212;27.908;2022-10-16T01:39:04;11.02;;;6.13;;
71038;SDS011;58692;43.212;27.908;2022-10-16T01:41:34;9.75;;;5.88;;
71038;SDS011;58692;43.212;27.908;2022-10-16T01:44:06;10.00;;;5.65;;
71038;SDS011;58692;43.212;27.908;2022-10-16T01:46:37;9.80;;;5.53;;
71038;SDS011;58692;43.212;27.908;2022-10-16T01:49:04;11.15;;;5.60;;
71038;SDS011;58692;43.212;27.908;2022-10-16T01:51:32;9.98;;;5.10;;
71038;SDS011;58692;43.212;27.908;2022-10-16T01:54:00;10.30;;;5.85;;
71038;SDS011;58692;43.212;27.908;2022-10-16T01:56:27;9.52;;;5.28;;
71038;SDS011;58692;43.212;27.908;2022-10-16T01:58:56;12.00;;;5.63;;
71038;SDS011;58692;43.212;27.908;2022-10-16T02:01:28;10.40;;;5.25;;
71038;SDS011;58692;43.212;27.908;2022-10-16T02:03:57;10.52;;;5.10;;
71038;SDS011;58692;43.212;27.908;2022-10-16T02:06:26;11.98;;;5.25;;
71038;SDS011;58692;43.212;27.908;2022-10-16T02:08:52;9.93;;;5.17;;
71038;SDS011;58692;43.212;27.908;2022-10-16T02:11:18;8.70;;;4.50;;
71038;SDS011;58692;43.212;27.908;2022-10-16T02:16:13;9.05;;;4.47;;
71038;SDS011;58692;43.212;27.908;2022-10-16T02:18:39;8.25;;;4.28;;
71038;SDS011;58692;43.212;27.908;2022-10-16T02:21:14;8.60;;;4.20;;
71038;SDS011;58692;43.212;27.908;2022-10-16T02:23:53;9.70;;;4.25;;
71038;SDS011;58692;43.212;27.908;2022-10-16T02:26:40;8.57;;;4.30;;
71038;SDS011;58692;43.212;27.908;2022-10-16T02:29:15;9.10;;;4.25;;
71038;SDS011;58692;43.212;27.908;2022-10-16T02:31:46;11.00;;;4.30;;
71038;SDS011;58692;43.212;27.908;2022-10-16T02:34:16;7.53;;;3.95;;
71038;SDS011;58692;43.212;27.908;2022-10-16T02:36:43;9.65;;;4.07;;
71038;SDS011;58692;43.212;27.908;2022-10-16T02:39:11;8.13;;;4.20;;
71038;SDS011;58692;43.212;27.908;2022-10-16T02:41:37;8.68;;;3.92;;
71038;SDS011;58692;43.212;27.908;2022-10-16T02:44:03;8.07;;;3.90;;
71038;SDS011;58692;43.212;27.908;2022-10-16T02:46:29;9.97;;;3.70;;
71038;SDS011;58692;43.212;27.908;2022-10-16T02:48:54;9.60;;;4.07;;
71038;SDS011;58692;43.212;27.908;2022-10-16T02:51:19;10.73;;;4.60;;
71038;SDS011;58692;43.212;27.908;2022-10-16T02:53:45;11.50;;;4.13;;
71038;SDS011;58692;43.212;27.908;2022-10-16T02:56:11;8.40;;;4.30;;
71038;SDS011;58692;43.212;27.908;2022-10-16T02:58:36;12.53;;;4.23;;
71038;SDS011;58692;43.212;27.908;2022-10-16T03:01:02;9.47;;;4.50;;
71038;SDS011;58692;43.212;27.908;2022-10-16T03:03:27;6.65;;;3.67;;
71038;SDS011;58692;43.212;27.908;2022-10-16T03:05:53;10.77;;;4.00;;
71038;SDS011;58692;43.212;27.908;2022-10-16T03:08:18;8.40;;;4.03;;
71038;SDS011;58692;43.212;27.908;2022-10-16T03:10:48;6.75;;;3.53;;
71038;SDS011;58692;43.212;27.908;2022-10-16T03:13:14;9.32;;;3.33;;
71038;SDS011;58692;43.212;27.908;2022-10-16T03:15:40;8.97;;;3.67;;
71038;SDS011;58692;43.212;27.908;2022-10-16T03:18:05;8.68;;;3.80;;
71038;SDS011;58692;43.212;27.908;2022-10-16T03:20:31;10.00;;;4.07;;
71038;SDS011;58692;43.212;27.908;2022-10-16T03:22:56;8.13;;;3.13;;
71038;SDS011;58692;43.212;27.908;2022-10-16T03:25:22;6.70;;;3.35;;
71038;SDS011;58692;43.212;27.908;2022-10-16T03:27:47;7.07;;;3.13;;
71038;SDS011;58692;43.212;27.908;2022-10-16T03:30:12;8.43;;;3.60;;
71038;SDS011;58692;43.212;27.908;2022-10-16T03:32:38;6.57;;;3.30;;
71038;SDS011;58692;43.212;27.908;2022-10-16T03:35:03;9.20;;;3.30;;
71038;SDS011;58692;43.212;27.908;2022-10-16T03:37:29;8.60;;;3.50;;
71038;SDS011;58692;43.212;27.908;2022-10-16T03:39:55;8.03;;;3.33;;
71038;SDS011;58692;43.212;27.908;2022-10-16T03:42:20;11.40;;;3.60;;
71038;SDS011;58692;43.212;27.908;2022-10-16T03:44:46;9.20;;;3.63;;
71038;SDS011;58692;43.212;27.908;2022-10-16T03:47:11;7.57;;;3.70;;
71038;SDS011;58692;43.212;27.908;2022-10-16T03:49:37;6.47;;;3.30;;
71038;SDS011;58692;43.212;27.908;2022-10-16T03:52:02;10.48;;;4.13;;
71038;SDS011;58692;43.212;27.908;2022-10-16T03:54:28;9.47;;;3.70;;
71038;SDS011;58692;43.212;27.908;2022-10-16T03:56:53;7.43;;;4.30;;
71038;SDS011;58692;43.212;27.908;2022-10-16T03:59:19;11.65;;;3.80;;
71038;SDS011;58692;43.212;27.908;2022-10-16T04:01:44;10.20;;;3.63;;
71038;SDS011;58692;43.212;27.908;2022-10-16T04:04:10;9.93;;;3.60;;
71038;SDS011;58692;43.212;27.908;2022-10-16T04:06:35;7.20;;;3.97;;
71038;SDS011;58692;43.212;27.908;2022-10-16T04:09:01;8.13;;;3.83;;
71038;SDS011;58692;43.212;27.908;2022-10-16T04:11:27;12.77;;;4.20;;
71038;SDS011;58692;43.212;27.908;2022-10-16T04:13:52;9.00;;;4.47;;
71038;SDS011;58692;43.212;27.908;2022-10-16T04:16:18;9.60;;;4.47;;
71038;SDS011;58692;43.212;27.908;2022-10-16T04:18:43;11.60;;;4.25;;
71038;SDS011;58692;43.212;27.908;2022-10-16T04:21:09;12.50;;;4.57;;
71038;SDS011;58692;43.212;27.908;2022-10-16T04:23:34;11.52;;;4.30;;
71038;SDS011;58692;43.212;27.908;2022-10-16T04:26:00;9.30;;;3.97;;
71038;SDS011;58692;43.212;27.908;2022-10-16T04:28:25;10.70;;;4.67;;
71038;SDS011;58692;43.212;27.908;2022-10-16T04:30:52;8.88;;;4.70;;
71038;SDS011;58692;43.212;27.908;2022-10-16T04:33:17;12.90;;;4.83;;
71038;SDS011;58692;43.212;27.908;2022-10-16T04:35:43;10.93;;;4.80;;
71038;SDS011;58692;43.212;27.908;2022-10-16T04:38:08;10.13;;;4.43;;
71038;SDS011;58692;43.212;27.908;2022-10-16T04:40:34;11.00;;;5.03;;
71038;SDS011;58692;43.212;27.908;2022-10-16T04:43:01;10.77;;;5.43;;
71038;SDS011;58692;43.212;27.908;2022-10-16T04:45:28;9.95;;;5.05;;
71038;SDS011;58692;43.212;27.908;2022-10-16T04:47:56;11.93;;;5.57;;
71038;SDS011;58692;43.212;27.908;2022-10-16T04:50:22;10.93;;;5.20;;
71038;SDS011;58692;43.212;27.908;2022-10-16T04:52:48;10.07;;;4.97;;
71038;SDS011;58692;43.212;27.908;2022-10-16T04:55:14;9.82;;;5.13;;
71038;SDS011;58692;43.212;27.908;2022-10-16T04:57:40;9.00;;;5.40;;
71038;SDS011;58692;43.212;27.908;2022-10-16T05:00:05;9.73;;;5.30;;
71038;SDS011;58692;43.212;27.908;2022-10-16T05:02:31;12.60;;;5.88;;
71038;SDS011;58692;43.212;27.908;2022-10-16T05:04:56;12.10;;;6.30;;
71038;SDS011;58692;43.212;27.908;2022-10-16T05:07:22;11.00;;;5.33;;
71038;SDS011;58692;43.212;27.908;2022-10-16T05:09:47;12.32;;;5.95;;
71038;SDS011;58692;43.212;27.908;2022-10-16T05:12:13;10.33;;;5.53;;
71038;SDS011;58692;43.212;27.908;2022-10-16T05:14:38;9.00;;;5.03;;
71038;SDS011;58692;43.212;27.908;2022-10-16T05:17:04;9.10;;;5.05;;
71038;SDS011;58692;43.212;27.908;2022-10-16T05:19:29;9.63;;;5.03;;
71038;SDS011;58692;43.212;27.908;2022-10-16T05:21:55;10.47;;;5.10;;
71038;SDS011;58692;43.212;27.908;2022-10-16T05:24:21;12.30;;;5.35;;
71038;SDS011;58692;43.212;27.908;2022-10-16T05:26:46;13.90;;;5.40;;
71038;SDS011;58692;43.212;27.908;2022-10-16T05:29:12;9.50;;;5.10;;
71038;SDS011;58692;43.212;27.908;2022-10-16T05:31:38;11.40;;;5.57;;
71038;SDS011;58692;43.212;27.908;2022-10-16T05:34:03;10.77;;;5.28;;
71038;SDS011;58692;43.212;27.908;2022-10-16T05:36:29;8.87;;;5.30;;
71038;SDS011;58692;43.212;27.908;2022-10-16T05:38:54;10.53;;;5.10;;
71038;SDS011;58692;43.212;27.908;2022-10-16T05:41:20;10.30;;;5.57;;
71038;SDS011;58692;43.212;27.908;2022-10-16T05:43:47;10.97;;;5.17;;
71038;SDS011;58692;43.212;27.908;2022-10-16T05:46:13;9.85;;;4.97;;
71038;SDS011;58692;43.212;27.908;2022-10-16T05:48:38;9.85;;;5.75;;
71038;SDS011;58692;43.212;27.908;2022-10-16T05:51:05;10.37;;;5.20;;
71038;SDS011;58692;43.212;27.908;2022-10-16T05:53:32;9.60;;;5.13;;
71038;SDS011;58692;43.212;27.908;2022-10-16T05:55:59;11.73;;;5.13;;
71038;SDS011;58692;43.212;27.908;2022-10-16T05:58:25;8.13;;;5.60;;
71038;SDS011;58692;43.212;27.908;2022-10-16T06:00:56;9.43;;;5.47;;
71038;SDS011;58692;43.212;27.908;2022-10-16T06:03:23;11.52;;;5.60;;
71038;SDS011;58692;43.212;27.908;2022-10-16T06:05:49;10.67;;;5.27;;
71038;SDS011;58692;43.212;27.908;2022-10-16T06:08:16;11.75;;;5.45;;
71038;SDS011;58692;43.212;27.908;2022-10-16T06:10:42;11.18;;;6.05;;
71038;SDS011;58692;43.212;27.908;2022-10-16T06:13:08;8.57;;;5.57;;
71038;SDS011;58692;43.212;27.908;2022-10-16T06:15:34;10.15;;;5.90;;
71038;SDS011;58692;43.212;27.908;2022-10-16T06:18:00;10.00;;;6.10;;
71038;SDS011;58692;43.212;27.908;2022-10-16T06:20:25;12.13;;;5.93;;
71038;SDS011;58692;43.212;27.908;2022-10-16T06:22:51;8.80;;;5.70;;
71038;SDS011;58692;43.212;27.908;2022-10-16T06:25:16;13.23;;;5.72;;
71038;SDS011;58692;43.212;27.908;2022-10-16T06:27:42;9.67;;;5.30;;
71038;SDS011;58692;43.212;27.908;2022-10-16T06:30:07;8.47;;;4.90;;
71038;SDS011;58692;43.212;27.908;2022-10-16T06:32:34;9.30;;;5.53;;
71038;SDS011;58692;43.212;27.908;2022-10-16T06:35:00;9.05;;;4.57;;
71038;SDS011;58692;43.212;27.908;2022-10-16T06:37:26;7.93;;;4.20;;
71038;SDS011;58692;43.212;27.908;2022-10-16T06:39:52;7.63;;;3.20;;
71038;SDS011;58692;43.212;27.908;2022-10-16T06:42:17;7.37;;;3.70;;
71038;SDS011;58692;43.212;27.908;2022-10-16T06:44:43;5.43;;;3.20;;
71038;SDS011;58692;43.212;27.908;2022-10-16T06:47:09;7.80;;;3.43;;
71038;SDS011;58692;43.212;27.908;2022-10-16T06:49:35;6.85;;;3.17;;
71038;SDS011;58692;43.212;27.908;2022-10-16T06:52:00;7.53;;;3.10;;
71038;SDS011;58692;43.212;27.908;2022-10-16T06:54:26;8.27;;;3.50;;
71038;SDS011;58692;43.212;27.908;2022-10-16T06:56:52;8.82;;;3.58;;
71038;SDS011;58692;43.212;27.908;2022-10-16T06:59:19;10.32;;;3.95;;
71038;SDS011;58692;43.212;27.908;2022-10-16T07:01:45;7.27;;;3.60;;
71038;SDS011;58692;43.212;27.908;2022-10-16T07:04:11;10.43;;;3.05;;
71038;SDS011;58692;43.212;27.908;2022-10-16T07:06:36;7.17;;;2.77;;
71038;SDS011;58692;43.212;27.908;2022-10-16T07:09:03;6.77;;;2.57;;
71038;SDS011;58692;43.212;27.908;2022-10-16T07:11:32;6.55;;;2.60;;
71038;SDS011;58692;43.212;27.908;2022-10-16T07:13:58;6.45;;;2.80;;
71038;SDS011;58692;43.212;27.908;2022-10-16T07:16:25;7.53;;;2.72;;
71038;SDS011;58692;43.212;27.908;2022-10-16T07:18:53;7.82;;;2.75;;
71038;SDS011;58692;43.212;27.908;2022-10-16T07:21:23;5.43;;;2.40;;
71038;SDS011;58692;43.212;27.908;2022-10-16T07:23:51;7.53;;;2.80;;
71038;SDS011;58692;43.212;27.908;2022-10-16T07:26:18;5.93;;;2.63;;
71038;SDS011;58692;43.212;27.908;2022-10-16T07:28:43;5.93;;;2.60;;
71038;SDS011;58692;43.212;27.908;2022-10-16T07:31:10;6.13;;;2.50;;
71038;SDS011;58692;43.212;27.908;2022-10-16T07:33:38;7.47;;;2.63;;
71038;SDS011;58692;43.212;27.908;2022-10-16T07:36:06;6.28;;;2.38;;
71038;SDS011;58692;43.212;27.908;2022-10-16T07:38:33;8.80;;;2.70;;
71038;SDS011;58692;43.212;27.908;2022-10-16T07:40:59;5.53;;;2.60;;
71038;SDS011;58692;43.212;27.908;2022-10-16T07:43:28;8.73;;;2.92;;
71038;SDS011;58692;43.212;27.908;2022-10-16T07:45:54;6.32;;;2.63;;
71038;SDS011;58692;43.212;27.908;2022-10-16T07:48:20;4.97;;;2.57;;
71038;SDS011;58692;43.212;27.908;2022-10-16T07:50:47;6.05;;;2.33;;
71038;SDS011;58692;43.212;27.908;2022-10-16T07:53:13;8.15;;;2.97;;
71038;SDS011;58692;43.212;27.908;2022-10-16T07:55:39;7.32;;;2.60;;
71038;SDS011;58692;43.212;27.908;2022-10-16T07:58:05;8.07;;;2.40;;
71038;SDS011;58692;43.212;27.908;2022-10-16T08:00:31;8.13;;;2.80;;
71038;SDS011;58692;43.212;27.908;2022-10-16T08:02:57;7.05;;;2.60;;
71038;SDS011;58692;43.212;27.908;2022-10-16T08:05:26;6.03;;;2.60;;
71038;SDS011;58692;43.212;27.908;2022-10-16T08:07:53;8.73;;;2.80;;
71038;SDS011;58692;43.212;27.908;2022-10-16T08:10:19;7.63;;;2.55;;
71038;SDS011;58692;43.212;27.908;2022-10-16T08:12:46;5.63;;;2.60;;
71038;SDS011;58692;43.212;27.908;2022-10-16T08:15:12;6.47;;;2.50;;
71038;SDS011;58692;43.212;27.908;2022-10-16T08:17:37;6.23;;;2.80;;
71038;SDS011;58692;43.212;27.908;2022-10-16T08:20:03;9.77;;;2.70;;
71038;SDS011;58692;43.212;27.908;2022-10-16T08:22:29;6.97;;;2.60;;
71038;SDS011;58692;43.212;27.908;2022-10-16T08:24:54;7.18;;;2.67;;
71038;SDS011;58692;43.212;27.908;2022-10-16T08:27:20;8.77;;;2.67;;
71038;SDS011;58692;43.212;27.908;2022-10-16T08:29:45;5.73;;;2.60;;
71038;SDS011;58692;43.212;27.908;2022-10-16T08:32:11;6.82;;;2.58;;
71038;SDS011;58692;43.212;27.908;2022-10-16T08:34:36;5.43;;;2.30;;
71038;SDS011;58692;43.212;27.908;2022-10-16T08:37:02;8.20;;;2.40;;
71038;SDS011;58692;43.212;27.908;2022-10-16T08:39:28;7.15;;;2.22;;
71038;SDS011;58692;43.212;27.908;2022-10-16T08:47:48;3.95;;;2.25;;
71038;SDS011;58692;43.212;27.908;2022-10-16T08:50:24;7.45;;;2.72;;
71038;SDS011;58692;43.212;27.908;2022-10-16T08:52:53;7.17;;;2.63;;
71038;SDS011;58692;43.212;27.908;2022-10-16T08:55:32;4.88;;;2.40;;
71038;SDS011;58692;43.212;27.908;2022-10-16T08:58:09;6.28;;;2.50;;
71038;SDS011;58692;43.212;27.908;2022-10-16T09:00:38;6.22;;;2.70;;
71038;SDS011;58692;43.212;27.908;2022-10-16T09:03:07;6.40;;;2.28;;
71038;SDS011;58692;43.212;27.908;2022-10-16T09:05:57;6.57;;;2.60;;
71038;SDS011;58692;43.212;27.908;2022-10-16T09:11:42;6.88;;;2.53;;
71038;SDS011;58692;43.212;27.908;2022-10-16T09:20:09;7.37;;;2.60;;
71038;SDS011;58692;43.212;27.908;2022-10-16T09:22:42;5.65;;;2.58;;
71038;SDS011;58692;43.212;27.908;2022-10-16T09:25:12;8.25;;;3.20;;
71038;SDS011;58692;43.212;27.908;2022-10-16T09:27:40;6.30;;;2.70;;
71038;SDS011;58692;43.212;27.908;2022-10-16T09:30:11;8.10;;;2.85;;
71038;SDS011;58692;43.212;27.908;2022-10-16T09:32:38;5.75;;;2.55;;
71038;SDS011;58692;43.212;27.908;2022-10-16T09:35:04;7.88;;;2.80;;
71038;SDS011;58692;43.212;27.908;2022-10-16T09:37:39;6.97;;;2.58;;
71038;SDS011;58692;43.212;27.908;2022-10-16T09:40:07;4.87;;;2.63;;
71038;SDS011;58692;43.212;27.908;2022-10-16T09:42:37;7.65;;;2.60;;
71038;SDS011;58692;43.212;27.908;2022-10-16T09:45:03;8.60;;;2.80;;
71038;SDS011;58692;43.212;27.908;2022-10-16T09:47:29;6.77;;;2.60;;
71038;SDS011;58692;43.212;27.908;2022-10-16T09:49:57;6.90;;;2.50;;
71038;SDS011;58692;43.212;27.908;2022-10-16T09:52:27;6.22;;;2.38;;
71038;SDS011;58692;43.212;27.908;2022-10-16T09:54:57;5.90;;;2.55;;
71038;SDS011;58692;43.212;27.908;2022-10-16T09:57:26;7.45;;;2.60;;
71038;SDS011;58692;43.212;27.908;2022-10-16T09:59:53;5.87;;;2.60;;
71038;SDS011;58692;43.212;27.908;2022-10-16T10:02:30;7.47;;;2.45;;
71038;SDS011;58692;43.212;27.908;2022-10-16T10:04:59;8.00;;;2.70;;
71038;SDS011;58692;43.212;27.908;2022-10-16T10:07:27;5.30;;;2.42;;
71038;SDS011;58692;43.212;27.908;2022-10-16T10:09:59;6.35;;;2.65;;
71038;SDS011;58692;43.212;27.908;2022-10-16T10:12:27;6.53;;;2.70;;
71038;SDS011;58692;43.212;27.908;2022-10-16T10:14:56;7.00;;;2.65;;
71038;SDS011;58692;43.212;27.908;2022-10-16T10:17:24;4.50;;;2.15;;
71038;SDS011;58692;43.212;27.908;2022-10-16T10:19:55;5.80;;;2.30;;
71038;SDS011;58692;43.212;27.908;2022-10-16T10:22:24;8.05;;;2.50;;
71038;SDS011;58692;43.212;27.908;2022-10-16T10:24:55;4.87;;;2.27;;
71038;SDS011;58692;43.212;27.908;2022-10-16T10:27:24;5.80;;;2.28;;
71038;SDS011;58692;43.212;27.908;2022-10-16T10:35:22;8.52;;;2.75;;
71038;SDS011;58692;43.212;27.908;2022-10-16T10:38:02;6.37;;;2.70;;
71038;SDS011;58692;43.212;27.908;2022-10-16T10:40:40;5.43;;;2.50;;
71038;SDS011;58692;43.212;27.908;2022-10-16T10:45:38;5.80;;;2.40;;
71038;SDS011;58692;43.212;27.908;2022-10-16T10:51:05;7.27;;;2.50;;
71038;SDS011;58692;43.212;27.908;2022-10-16T10:53:43;4.65;;;2.50;;
71038;SDS011;58692;43.212;27.908;2022-10-16T10:56:40;7.93;;;2.70;;
71038;SDS011;58692;43.212;27.908;2022-10-16T10:59:21;8.00;;;2.67;;
71038;SDS011;58692;43.212;27.908;2022-10-16T11:01:54;6.65;;;2.67;;
71038;SDS011;58692;43.212;27.908;2022-10-16T11:07:07;7.10;;;2.70;;
71038;SDS011;58692;43.212;27.908;2022-10-16T11:09:51;7.40;;;2.75;;
71038;SDS011;58692;43.212;27.908;2022-10-16T11:14:55;7.13;;;2.78;;
71038;SDS011;58692;43.212;27.908;2022-10-16T11:17:28;5.70;;;2.40;;
71038;SDS011;58692;43.212;27.908;2022-10-16T11:20:12;7.05;;;3.15;;
71038;SDS011;58692;43.212;27.908;2022-10-16T11:22:46;5.30;;;2.75;;
71038;SDS011;58692;43.212;27.908;2022-10-16T11:27:59;7.05;;;2.90;;
71038;SDS011;58692;43.212;27.908;2022-10-16T11:30:29;8.17;;;2.67;;
71038;SDS011;58692;43.212;27.908;2022-10-16T11:36:03;6.63;;;2.95;;
71038;SDS011;58692;43.212;27.908;2022-10-16T11:40:58;6.60;;;2.83;;
71038;SDS011;58692;43.212;27.908;2022-10-16T11:43:32;6.28;;;2.60;;
71038;SDS011;58692;43.212;27.908;2022-10-16T11:46:07;8.52;;;3.00;;
71038;SDS011;58692;43.212;27.908;2022-10-16T11:51:14;6.17;;;2.70;;
71038;SDS011;58692;43.212;27.908;2022-10-16T11:53:47;7.72;;;2.92;;
71038;SDS011;58692;43.212;27.908;2022-10-16T11:56:22;6.68;;;2.55;;
71038;SDS011;58692;43.212;27.908;2022-10-16T12:01:33;6.13;;;2.40;;
71038;SDS011;58692;43.212;27.908;2022-10-16T12:04:22;7.03;;;2.70;;
71038;SDS011;58692;43.212;27.908;2022-10-16T12:07:06;6.15;;;2.60;;
71038;SDS011;58692;43.212;27.908;2022-10-16T12:09:37;5.80;;;2.63;;
71038;SDS011;58692;43.212;27.908;2022-10-16T12:12:04;7.03;;;2.70;;
71038;SDS011;58692;43.212;27.908;2022-10-16T12:14:59;5.67;;;2.47;;
71038;SDS011;58692;43.212;27.908;2022-10-16T12:17:27;6.32;;;2.80;;
71038;SDS011;58692;43.212;27.908;2022-10-16T12:20:12;7.60;;;3.10;;
71038;SDS011;58692;43.212;27.908;2022-10-16T12:22:48;6.65;;;2.67;;
71038;SDS011;58692;43.212;27.908;2022-10-16T12:25:24;5.75;;;2.88;;
71038;SDS011;58692;43.212;27.908;2022-10-16T12:27:56;7.37;;;2.93;;
71038;SDS011;58692;43.212;27.908;2022-10-16T12:30:32;6.15;;;2.63;;
71038;SDS011;58692;43.212;27.908;2022-10-16T12:33:01;6.55;;;2.83;;
71038;SDS011;58692;43.212;27.908;2022-10-16T12:35:30;8.27;;;2.95;;
71038;SDS011;58692;43.212;27.908;2022-10-16T12:40:43;6.23;;;2.70;;
71038;SDS011;58692;43.212;27.908;2022-10-16T12:43:11;4.78;;;2.70;;
71038;SDS011;58692;43.212;27.908;2022-10-16T12:48:34;6.43;;;2.80;;
71038;SDS011;58692;43.212;27.908;2022-10-16T12:59:28;6.95;;;2.90;;
71038;SDS011;58692;43.212;27.908;2022-10-16T13:04:44;9.38;;;2.72;;
71038;SDS011;58692;43.212;27.908;2022-10-16T13:07:19;6.77;;;3.03;;
71038;SDS011;58692;43.212;27.908;2022-10-16T13:09:53;6.35;;;2.75;;
71038;SDS011;58692;43.212;27.908;2022-10-16T13:12:37;5.40;;;3.00;;
71038;SDS011;58692;43.212;27.908;2022-10-16T13:18:10;7.93;;;3.08;;
71038;SDS011;58692;43.212;27.908;2022-10-16T13:21:01;8.17;;;3.17;;
71038;SDS011;58692;43.212;27.908;2022-10-16T13:23:33;7.68;;;3.05;;
71038;SDS011;58692;43.212;27.908;2022-10-16T13:26:17;5.47;;;2.85;;
71038;SDS011;58692;43.212;27.908;2022-10-16T13:29:00;7.45;;;2.92;;
71038;SDS011;58692;43.212;27.908;2022-10-16T13:31:26;7.43;;;3.20;;
71038;SDS011;58692;43.212;27.908;2022-10-16T13:33:55;7.77;;;2.80;;
71038;SDS011;58692;43.212;27.908;2022-10-16T13:41:37;7.75;;;3.00;;
71038;SDS011;58692;43.212;27.908;2022-10-16T13:44:03;7.40;;;3.17;;
71038;SDS011;58692;43.212;27.908;2022-10-16T13:46:30;7.88;;;3.10;;
71038;SDS011;58692;43.212;27.908;2022-10-16T13:49:01;8.65;;;2.85;;
71038;SDS011;58692;43.212;27.908;2022-10-16T13:51:28;7.15;;;2.80;;
71038;SDS011;58692;43.212;27.908;2022-10-16T13:53:56;6.10;;;2.67;;
71038;SDS011;58692;43.212;27.908;2022-10-16T13:56:22;7.30;;;2.83;;
71038;SDS011;58692;43.212;27.908;2022-10-16T13:59:00;5.88;;;2.40;;
71038;SDS011;58692;43.212;27.908;2022-10-16T14:01:28;6.82;;;2.50;;
71038;SDS011;58692;43.212;27.908;2022-10-16T14:04:01;4.72;;;2.45;;
71038;SDS011;58692;43.212;27.908;2022-10-16T14:06:30;6.78;;;2.38;;
71038;SDS011;58692;43.212;27.908;2022-10-16T14:09:01;7.10;;;2.47;;
71038;SDS011;58692;43.212;27.908;2022-10-16T14:11:32;6.82;;;2.75;;
71038;SDS011;58692;43.212;27.908;2022-10-16T14:13:59;7.57;;;2.50;;
71038;SDS011;58692;43.212;27.908;2022-10-16T14:16:27;6.15;;;2.38;;
71038;SDS011;58692;43.212;27.908;2022-10-16T14:21:22;8.70;;;2.40;;
71038;SDS011;58692;43.212;27.908;2022-10-16T14:23:47;6.72;;;2.55;;
71038;SDS011;58692;43.212;27.908;2022-10-16T14:26:14;6.30;;;2.20;;
71038;SDS011;58692;43.212;27.908;2022-10-16T14:28:42;8.82;;;2.47;;
71038;SDS011;58692;43.212;27.908;2022-10-16T14:33:51;4.78;;;2.40;;
71038;SDS011;58692;43.212;27.908;2022-10-16T14:36:17;4.60;;;2.20;;
71038;SDS011;58692;43.212;27.908;2022-10-16T14:41:27;9.07;;;2.58;;
71038;SDS011;58692;43.212;27.908;2022-10-16T14:43:56;5.63;;;2.50;;
71038;SDS011;58692;43.212;27.908;2022-10-16T14:46:29;7.95;;;2.75;;
71038;SDS011;58692;43.212;27.908;2022-10-16T14:49:00;5.53;;;2.38;;
71038;SDS011;58692;43.212;27.908;2022-10-16T14:51:29;7.80;;;2.50;;
71038;SDS011;58692;43.212;27.908;2022-10-16T14:53:54;7.43;;;2.70;;
71038;SDS011;58692;43.212;27.908;2022-10-16T14:56:21;6.50;;;2.60;;
71038;SDS011;58692;43.212;27.908;2022-10-16T14:58:50;7.07;;;2.42;;
71038;SDS011;58692;43.212;27.908;2022-10-16T15:01:17;6.65;;;2.55;;
71038;SDS011;58692;43.212;27.908;2022-10-16T15:03:43;5.97;;;2.50;;
71038;SDS011;58692;43.212;27.908;2022-10-16T15:06:12;7.80;;;2.70;;
71038;SDS011;58692;43.212;27.908;2022-10-16T15:08:39;7.53;;;2.50;;
71038;SDS011;58692;43.212;27.908;2022-10-16T15:11:05;5.97;;;2.47;;
71038;SDS011;58692;43.212;27.908;2022-10-16T15:13:38;6.05;;;2.70;;
71038;SDS011;58692;43.212;27.908;2022-10-16T15:16:04;5.63;;;2.53;;
71038;SDS011;58692;43.212;27.908;2022-10-16T15:18:33;7.97;;;2.50;;
71038;SDS011;58692;43.212;27.908;2022-10-16T15:20:58;7.40;;;2.60;;
71038;SDS011;58692;43.212;27.908;2022-10-16T15:23:23;8.40;;;2.75;;
71038;SDS011;58692;43.212;27.908;2022-10-16T15:25:50;7.67;;;2.20;;
71038;SDS011;58692;43.212;27.908;2022-10-16T15:28:17;8.10;;;2.70;;
71038;SDS011;58692;43.212;27.908;2022-10-16T15:30:45;5.63;;;2.50;;
71038;SDS011;58692;43.212;27.908;2022-10-16T15:33:13;6.97;;;2.70;;
71038;SDS011;58692;43.212;27.908;2022-10-16T15:35:40;8.57;;;2.88;;
71038;SDS011;58692;43.212;27.908;2022-10-16T15:38:06;8.95;;;2.95;;
71038;SDS011;58692;43.212;27.908;2022-10-16T15:40:37;6.05;;;2.55;;
71038;SDS011;58692;43.212;27.908;2022-10-16T15:43:02;7.87;;;3.43;;
71038;SDS011;58692;43.212;27.908;2022-10-16T15:45:28;6.90;;;2.83;;
71038;SDS011;58692;43.212;27.908;2022-10-16T15:47:54;10.80;;;3.50;;
71038;SDS011;58692;43.212;27.908;2022-10-16T15:50:19;7.70;;;3.10;;
71038;SDS011;58692;43.212;27.908;2022-10-16T15:52:45;7.15;;;3.10;;
71038;SDS011;58692;43.212;27.908;2022-10-16T15:55:11;8.23;;;3.50;;
71038;SDS011;58692;43.212;27.908;2022-10-16T15:57:38;8.10;;;3.42;;
71038;SDS011;58692;43.212;27.908;2022-10-16T16:00:07;8.35;;;4.25;;
71038;SDS011;58692;43.212;27.908;2022-10-16T16:02:35;8.27;;;3.70;;
71038;SDS011;58692;43.212;27.908;2022-10-16T16:05:00;7.87;;;3.80;;
71038;SDS011;58692;43.212;27.908;2022-10-16T16:07:26;8.10;;;3.60;;
71038;SDS011;58692;43.212;27.908;2022-10-16T16:09:52;9.32;;;3.85;;